Terminal Aerodrome Forecast
Issued by NWS

Home | Current Version | Previous Version | Text Only | Print | Product List | Glossary On
Versions: 1 2 3 4 5 6 7 8 9 10 11 12 13 14
544
FTUS44 KLIX 171146
TAFMSY
TAF
KMSY 171146Z 1712/1818 15013KT P6SM VCSH FEW020 BKN040 OVC060
     FM171500 17010KT 6SM -SHRA SCT025 OVC030
      TEMPO 1715/1718 3/4SM SHRA OVC003
     FM171800 VRB06KT P6SM VCSH BKN010 OVC050
     FM172100 16005KT P6SM BKN015 OVC060
     FM180500 16004KT 3SM BR BKN008 OVC060
     FM181000 VRB03KT 1SM BR VCSH BKN008 OVC090
     FM181500 21006KT 5SM BR SCT008 BKN250=

USA.gov is the U.S. government's official web portal to all federal, state and local government web resources and services.